Terminal Aerodrome Forecast
Issued by NWS Cleveland, OH

Home | Current Version | Previous Version | Graphics & Text | Print | Product List | Glossary On
Versions: 1 2 3 4 5 6 7 8 9 10 11 12 13 14 15 16 17 18 19
443
FTUS41 KCLE 302338
TAFMFD
TAF
KMFD 302338Z 0100/0124 27011KT 5SM -SHRA SCT006 OVC015
      TEMPO 0100/0103 2SM -SHRA BKN006
     FM010400 26012G18KT P6SM SCT015 OVC025=

USA.gov is the U.S. government's official web portal to all federal, state and local government web resources and services.